sensor_id;sensor_type;location;lat;lon;timestamp;P1;durP1;ratioP1;P2;durP2;ratioP2
35602;SDS011;21725;50.836;4.368;2022-10-20T00:01:19;18.30;;;10.40;;
35602;SDS011;21725;50.836;4.368;2022-10-20T00:03:50;17.55;;;10.82;;
35602;SDS011;21725;50.836;4.368;2022-10-20T00:06:25;17.15;;;10.50;;
35602;SDS011;21725;50.836;4.368;2022-10-20T00:09:04;14.52;;;10.80;;
35602;SDS011;21725;50.836;4.368;2022-10-20T00:11:33;18.98;;;10.80;;
35602;SDS011;21725;50.836;4.368;2022-10-20T00:13:59;20.20;;;11.48;;
35602;SDS011;21725;50.836;4.368;2022-10-20T00:16:33;18.40;;;11.85;;
35602;SDS011;21725;50.836;4.368;2022-10-20T00:19:02;16.00;;;10.98;;
35602;SDS011;21725;50.836;4.368;2022-10-20T00:21:34;17.67;;;11.00;;
35602;SDS011;21725;50.836;4.368;2022-10-20T00:24:02;14.63;;;10.20;;
35602;SDS011;21725;50.836;4.368;2022-10-20T00:26:29;13.73;;;10.20;;
35602;SDS011;21725;50.836;4.368;2022-10-20T00:28:59;17.08;;;11.45;;
35602;SDS011;21725;50.836;4.368;2022-10-20T00:31:33;14.05;;;10.20;;
35602;SDS011;21725;50.836;4.368;2022-10-20T00:33:59;16.80;;;11.60;;
35602;SDS011;21725;50.836;4.368;2022-10-20T00:36:34;15.23;;;10.38;;
35602;SDS011;21725;50.836;4.368;2022-10-20T00:39:10;15.02;;;10.27;;
35602;SDS011;21725;50.836;4.368;2022-10-20T00:41:43;18.02;;;12.43;;
35602;SDS011;21725;50.836;4.368;2022-10-20T00:47:31;14.52;;;10.82;;
35602;SDS011;21725;50.836;4.368;2022-10-20T00:50:16;16.38;;;11.60;;
35602;SDS011;21725;50.836;4.368;2022-10-20T00:52:43;17.40;;;12.00;;
35602;SDS011;21725;50.836;4.368;2022-10-20T00:55:11;15.48;;;12.00;;
35602;SDS011;21725;50.836;4.368;2022-10-20T00:57:39;13.48;;;8.95;;
35602;SDS011;21725;50.836;4.368;2022-10-20T01:00:16;15.40;;;12.70;;
35602;SDS011;21725;50.836;4.368;2022-10-20T01:02:42;17.60;;;11.35;;
35602;SDS011;21725;50.836;4.368;2022-10-20T01:05:11;17.55;;;12.23;;
35602;SDS011;21725;50.836;4.368;2022-10-20T01:07:38;14.65;;;10.88;;
35602;SDS011;21725;50.836;4.368;2022-10-20T01:10:04;19.80;;;12.88;;
35602;SDS011;21725;50.836;4.368;2022-10-20T01:15:53;22.88;;;12.82;;
35602;SDS011;21725;50.836;4.368;2022-10-20T01:27:41;19.90;;;11.18;;
35602;SDS011;21725;50.836;4.368;2022-10-20T01:30:29;16.27;;;11.85;;
35602;SDS011;21725;50.836;4.368;2022-10-20T01:33:08;14.82;;;10.75;;
35602;SDS011;21725;50.836;4.368;2022-10-20T01:35:49;19.08;;;10.80;;
35602;SDS011;21725;50.836;4.368;2022-10-20T01:41:20;16.40;;;12.95;;
35602;SDS011;21725;50.836;4.368;2022-10-20T01:43:51;21.63;;;11.18;;
35602;SDS011;21725;50.836;4.368;2022-10-20T01:46:19;16.98;;;11.88;;
35602;SDS011;21725;50.836;4.368;2022-10-20T01:48:57;15.75;;;11.77;;
35602;SDS011;21725;50.836;4.368;2022-10-20T01:51:26;17.08;;;10.90;;
35602;SDS011;21725;50.836;4.368;2022-10-20T01:53:52;17.55;;;11.55;;
35602;SDS011;21725;50.836;4.368;2022-10-20T01:56:37;18.33;;;11.25;;
35602;SDS011;21725;50.836;4.368;2022-10-20T02:04:44;20.00;;;11.65;;
35602;SDS011;21725;50.836;4.368;2022-10-20T02:07:28;16.13;;;11.80;;
35602;SDS011;21725;50.836;4.368;2022-10-20T02:09:59;21.88;;;12.60;;
35602;SDS011;21725;50.836;4.368;2022-10-20T02:12:34;19.58;;;11.63;;
35602;SDS011;21725;50.836;4.368;2022-10-20T02:15:06;13.18;;;10.65;;
35602;SDS011;21725;50.836;4.368;2022-10-20T02:17:34;16.88;;;11.27;;
35602;SDS011;21725;50.836;4.368;2022-10-20T02:20:04;15.07;;;11.02;;
35602;SDS011;21725;50.836;4.368;2022-10-20T02:22:32;14.40;;;9.48;;
35602;SDS011;21725;50.836;4.368;2022-10-20T02:25:01;13.90;;;11.13;;
35602;SDS011;21725;50.836;4.368;2022-10-20T02:29:58;16.70;;;11.38;;
35602;SDS011;21725;50.836;4.368;2022-10-20T02:32:32;16.73;;;11.32;;
35602;SDS011;21725;50.836;4.368;2022-10-20T02:35:09;19.15;;;10.95;;
35602;SDS011;21725;50.836;4.368;2022-10-20T02:37:40;18.90;;;11.27;;
35602;SDS011;21725;50.836;4.368;2022-10-20T02:40:09;15.73;;;10.63;;
35602;SDS011;21725;50.836;4.368;2022-10-20T02:42:35;15.97;;;10.90;;
35602;SDS011;21725;50.836;4.368;2022-10-20T02:45:02;15.07;;;10.90;;
35602;SDS011;21725;50.836;4.368;2022-10-20T02:47:29;16.33;;;11.45;;
35602;SDS011;21725;50.836;4.368;2022-10-20T02:50:04;14.82;;;10.27;;
35602;SDS011;21725;50.836;4.368;2022-10-20T02:52:36;19.90;;;11.65;;
35602;SDS011;21725;50.836;4.368;2022-10-20T02:55:04;16.15;;;10.63;;
35602;SDS011;21725;50.836;4.368;2022-10-20T02:57:33;18.73;;;11.00;;
35602;SDS011;21725;50.836;4.368;2022-10-20T02:59:59;16.05;;;10.57;;
35602;SDS011;21725;50.836;4.368;2022-10-20T03:02:25;14.88;;;10.40;;
35602;SDS011;21725;50.836;4.368;2022-10-20T03:04:51;14.88;;;10.40;;
35602;SDS011;21725;50.836;4.368;2022-10-20T03:07:17;17.02;;;10.02;;
35602;SDS011;21725;50.836;4.368;2022-10-20T03:09:45;18.33;;;11.77;;
35602;SDS011;21725;50.836;4.368;2022-10-20T03:12:13;14.10;;;9.65;;
35602;SDS011;21725;50.836;4.368;2022-10-20T03:14:46;14.60;;;10.10;;
35602;SDS011;21725;50.836;4.368;2022-10-20T03:17:12;15.57;;;10.23;;
35602;SDS011;21725;50.836;4.368;2022-10-20T03:19:40;15.63;;;10.07;;
35602;SDS011;21725;50.836;4.368;2022-10-20T03:22:06;15.25;;;10.60;;
35602;SDS011;21725;50.836;4.368;2022-10-20T03:24:34;17.92;;;9.60;;
35602;SDS011;21725;50.836;4.368;2022-10-20T03:27:02;13.65;;;9.13;;
35602;SDS011;21725;50.836;4.368;2022-10-20T03:29:31;12.10;;;9.25;;
35602;SDS011;21725;50.836;4.368;2022-10-20T03:31:59;11.95;;;9.70;;
35602;SDS011;21725;50.836;4.368;2022-10-20T03:34:25;16.45;;;10.30;;
35602;SDS011;21725;50.836;4.368;2022-10-20T03:36:51;16.42;;;9.27;;
35602;SDS011;21725;50.836;4.368;2022-10-20T03:39:17;12.32;;;9.18;;
35602;SDS011;21725;50.836;4.368;2022-10-20T03:41:46;13.85;;;9.05;;
35602;SDS011;21725;50.836;4.368;2022-10-20T03:44:14;14.02;;;9.73;;
35602;SDS011;21725;50.836;4.368;2022-10-20T03:46:42;14.77;;;8.80;;
35602;SDS011;21725;50.836;4.368;2022-10-20T03:49:11;12.82;;;9.30;;
35602;SDS011;21725;50.836;4.368;2022-10-20T03:51:39;15.98;;;9.43;;
35602;SDS011;21725;50.836;4.368;2022-10-20T03:54:07;13.43;;;9.90;;
35602;SDS011;21725;50.836;4.368;2022-10-20T03:56:33;13.18;;;9.27;;
35602;SDS011;21725;50.836;4.368;2022-10-20T03:59:02;15.52;;;8.73;;
35602;SDS011;21725;50.836;4.368;2022-10-20T04:01:33;17.55;;;13.13;;
35602;SDS011;21725;50.836;4.368;2022-10-20T04:04:10;11.82;;;9.27;;
35602;SDS011;21725;50.836;4.368;2022-10-20T04:06:36;16.65;;;9.63;;
35602;SDS011;21725;50.836;4.368;2022-10-20T04:09:04;15.52;;;10.15;;
35602;SDS011;21725;50.836;4.368;2022-10-20T04:11:30;13.77;;;9.27;;
35602;SDS011;21725;50.836;4.368;2022-10-20T04:13:56;14.50;;;9.57;;
35602;SDS011;21725;50.836;4.368;2022-10-20T04:16:23;12.25;;;9.35;;
35602;SDS011;21725;50.836;4.368;2022-10-20T04:18:52;12.85;;;9.63;;
35602;SDS011;21725;50.836;4.368;2022-10-20T04:21:18;18.77;;;9.70;;
35602;SDS011;21725;50.836;4.368;2022-10-20T04:23:44;14.85;;;9.45;;
35602;SDS011;21725;50.836;4.368;2022-10-20T04:26:10;15.82;;;10.40;;
35602;SDS011;21725;50.836;4.368;2022-10-20T04:28:37;13.55;;;9.73;;
35602;SDS011;21725;50.836;4.368;2022-10-20T04:31:12;20.38;;;11.60;;
35602;SDS011;21725;50.836;4.368;2022-10-20T04:33:38;12.15;;;9.23;;
35602;SDS011;21725;50.836;4.368;2022-10-20T04:36:05;12.35;;;9.45;;
35602;SDS011;21725;50.836;4.368;2022-10-20T04:38:36;17.02;;;11.05;;
35602;SDS011;21725;50.836;4.368;2022-10-20T04:41:03;15.25;;;10.55;;
35602;SDS011;21725;50.836;4.368;2022-10-20T04:43:39;13.82;;;10.07;;
35602;SDS011;21725;50.836;4.368;2022-10-20T04:46:05;17.38;;;10.20;;
35602;SDS011;21725;50.836;4.368;2022-10-20T04:48:31;11.57;;;9.43;;
35602;SDS011;21725;50.836;4.368;2022-10-20T04:51:02;13.70;;;9.82;;
35602;SDS011;21725;50.836;4.368;2022-10-20T04:53:37;13.40;;;9.40;;
35602;SDS011;21725;50.836;4.368;2022-10-20T04:56:10;17.50;;;10.35;;
35602;SDS011;21725;50.836;4.368;2022-10-20T04:58:45;14.00;;;9.90;;
35602;SDS011;21725;50.836;4.368;2022-10-20T05:01:15;16.67;;;9.90;;
35602;SDS011;21725;50.836;4.368;2022-10-20T05:03:42;14.27;;;9.95;;
35602;SDS011;21725;50.836;4.368;2022-10-20T05:08:33;13.43;;;10.50;;
35602;SDS011;21725;50.836;4.368;2022-10-20T05:11:01;20.05;;;9.57;;
35602;SDS011;21725;50.836;4.368;2022-10-20T05:13:27;12.57;;;10.02;;
35602;SDS011;21725;50.836;4.368;2022-10-20T05:15:55;13.57;;;8.65;;
35602;SDS011;21725;50.836;4.368;2022-10-20T05:18:21;14.68;;;9.50;;
35602;SDS011;21725;50.836;4.368;2022-10-20T05:20:47;15.23;;;9.23;;
35602;SDS011;21725;50.836;4.368;2022-10-20T05:23:13;14.85;;;9.07;;
35602;SDS011;21725;50.836;4.368;2022-10-20T05:25:39;15.93;;;11.15;;
35602;SDS011;21725;50.836;4.368;2022-10-20T05:28:10;28.92;;;11.13;;
35602;SDS011;21725;50.836;4.368;2022-10-20T05:30:44;13.50;;;9.30;;
35602;SDS011;21725;50.836;4.368;2022-10-20T05:33:10;11.25;;;8.68;;
35602;SDS011;21725;50.836;4.368;2022-10-20T05:35:40;18.83;;;11.10;;
35602;SDS011;21725;50.836;4.368;2022-10-20T05:38:06;18.50;;;9.02;;
35602;SDS011;21725;50.836;4.368;2022-10-20T05:40:32;10.70;;;7.50;;
35602;SDS011;21725;50.836;4.368;2022-10-20T05:43:11;12.70;;;8.85;;
35602;SDS011;21725;50.836;4.368;2022-10-20T05:45:36;13.65;;;8.18;;
35602;SDS011;21725;50.836;4.368;2022-10-20T05:48:06;10.73;;;7.35;;
35602;SDS011;21725;50.836;4.368;2022-10-20T05:50:32;18.08;;;8.38;;
35602;SDS011;21725;50.836;4.368;2022-10-20T05:53:00;11.35;;;7.30;;
35602;SDS011;21725;50.836;4.368;2022-10-20T05:55:26;15.63;;;9.30;;
35602;SDS011;21725;50.836;4.368;2022-10-20T05:57:56;13.30;;;8.43;;
35602;SDS011;21725;50.836;4.368;2022-10-20T06:00:27;16.55;;;12.00;;
35602;SDS011;21725;50.836;4.368;2022-10-20T06:02:55;12.25;;;7.90;;
35602;SDS011;21725;50.836;4.368;2022-10-20T06:05:21;12.63;;;8.75;;
35602;SDS011;21725;50.836;4.368;2022-10-20T06:07:51;14.88;;;7.97;;
35602;SDS011;21725;50.836;4.368;2022-10-20T06:10:18;9.82;;;7.43;;
35602;SDS011;21725;50.836;4.368;2022-10-20T06:12:44;12.65;;;8.65;;
35602;SDS011;21725;50.836;4.368;2022-10-20T06:15:09;13.88;;;7.78;;
35602;SDS011;21725;50.836;4.368;2022-10-20T06:17:35;12.73;;;8.07;;
35602;SDS011;21725;50.836;4.368;2022-10-20T06:20:01;11.02;;;7.72;;
35602;SDS011;21725;50.836;4.368;2022-10-20T06:22:35;10.80;;;7.65;;
35602;SDS011;21725;50.836;4.368;2022-10-20T06:25:01;11.88;;;6.85;;
35602;SDS011;21725;50.836;4.368;2022-10-20T06:27:27;16.42;;;8.00;;
35602;SDS011;21725;50.836;4.368;2022-10-20T06:29:52;16.42;;;7.45;;
35602;SDS011;21725;50.836;4.368;2022-10-20T06:32:18;11.52;;;6.47;;
35602;SDS011;21725;50.836;4.368;2022-10-20T06:34:50;13.18;;;6.93;;
35602;SDS011;21725;50.836;4.368;2022-10-20T06:37:24;13.40;;;7.32;;
35602;SDS011;21725;50.836;4.368;2022-10-20T06:39:50;13.15;;;8.30;;
35602;SDS011;21725;50.836;4.368;2022-10-20T06:42:24;11.98;;;6.65;;
35602;SDS011;21725;50.836;4.368;2022-10-20T06:44:50;18.13;;;7.65;;
35602;SDS011;21725;50.836;4.368;2022-10-20T06:47:16;11.98;;;6.55;;
35602;SDS011;21725;50.836;4.368;2022-10-20T06:49:54;11.70;;;7.07;;
35602;SDS011;21725;50.836;4.368;2022-10-20T06:52:20;13.73;;;6.80;;
35602;SDS011;21725;50.836;4.368;2022-10-20T06:54:48;14.65;;;7.05;;
35602;SDS011;21725;50.836;4.368;2022-10-20T06:57:29;16.63;;;7.53;;
35602;SDS011;21725;50.836;4.368;2022-10-20T07:00:00;15.43;;;6.32;;
35602;SDS011;21725;50.836;4.368;2022-10-20T07:02:26;14.07;;;6.03;;
35602;SDS011;21725;50.836;4.368;2022-10-20T07:04:54;12.13;;;6.10;;
35602;SDS011;21725;50.836;4.368;2022-10-20T07:07:31;9.00;;;6.25;;
35602;SDS011;21725;50.836;4.368;2022-10-20T07:10:00;17.67;;;5.95;;
35602;SDS011;21725;50.836;4.368;2022-10-20T07:12:45;10.90;;;6.20;;
35602;SDS011;21725;50.836;4.368;2022-10-20T07:15:14;8.30;;;5.53;;
35602;SDS011;21725;50.836;4.368;2022-10-20T07:17:52;18.95;;;6.30;;
35602;SDS011;21725;50.836;4.368;2022-10-20T07:20:24;9.20;;;5.95;;
35602;SDS011;21725;50.836;4.368;2022-10-20T07:23:00;17.70;;;6.03;;
35602;SDS011;21725;50.836;4.368;2022-10-20T07:25:37;17.10;;;6.47;;
35602;SDS011;21725;50.836;4.368;2022-10-20T07:28:03;14.13;;;7.05;;
35602;SDS011;21725;50.836;4.368;2022-10-20T07:30:47;11.30;;;6.32;;
35602;SDS011;21725;50.836;4.368;2022-10-20T07:33:23;14.25;;;6.97;;
35602;SDS011;21725;50.836;4.368;2022-10-20T07:35:52;10.35;;;6.20;;
35602;SDS011;21725;50.836;4.368;2022-10-20T07:38:20;15.52;;;6.35;;
35602;SDS011;21725;50.836;4.368;2022-10-20T07:40:49;15.82;;;7.22;;
35602;SDS011;21725;50.836;4.368;2022-10-20T07:45:59;13.00;;;6.18;;
35602;SDS011;21725;50.836;4.368;2022-10-20T07:48:40;12.35;;;6.68;;
35602;SDS011;21725;50.836;4.368;2022-10-20T07:53:53;12.75;;;6.93;;
35602;SDS011;21725;50.836;4.368;2022-10-20T07:56:21;11.93;;;6.57;;
35602;SDS011;21725;50.836;4.368;2022-10-20T07:58:50;10.75;;;7.00;;
35602;SDS011;21725;50.836;4.368;2022-10-20T08:01:16;12.30;;;7.97;;
35602;SDS011;21725;50.836;4.368;2022-10-20T08:03:46;19.60;;;7.68;;
35602;SDS011;21725;50.836;4.368;2022-10-20T08:06:12;10.27;;;7.18;;
35602;SDS011;21725;50.836;4.368;2022-10-20T08:08:41;15.13;;;7.28;;
35602;SDS011;21725;50.836;4.368;2022-10-20T08:11:09;11.27;;;7.25;;
35602;SDS011;21725;50.836;4.368;2022-10-20T08:13:35;11.65;;;6.93;;
35602;SDS011;21725;50.836;4.368;2022-10-20T08:16:12;11.02;;;7.05;;
35602;SDS011;21725;50.836;4.368;2022-10-20T08:18:43;19.30;;;8.30;;
35602;SDS011;21725;50.836;4.368;2022-10-20T08:21:15;10.23;;;6.28;;
35602;SDS011;21725;50.836;4.368;2022-10-20T08:23:51;13.20;;;7.18;;
35602;SDS011;21725;50.836;4.368;2022-10-20T08:26:26;17.90;;;8.23;;
35602;SDS011;21725;50.836;4.368;2022-10-20T08:28:54;15.13;;;7.35;;
35602;SDS011;21725;50.836;4.368;2022-10-20T08:31:43;11.35;;;6.47;;
35602;SDS011;21725;50.836;4.368;2022-10-20T08:34:13;13.40;;;6.80;;
35602;SDS011;21725;50.836;4.368;2022-10-20T08:36:39;14.40;;;8.27;;
35602;SDS011;21725;50.836;4.368;2022-10-20T08:39:10;16.75;;;7.20;;
35602;SDS011;21725;50.836;4.368;2022-10-20T08:41:42;20.15;;;7.65;;
35602;SDS011;21725;50.836;4.368;2022-10-20T08:44:15;24.85;;;8.68;;
35602;SDS011;21725;50.836;4.368;2022-10-20T08:46:50;15.13;;;8.52;;
35602;SDS011;21725;50.836;4.368;2022-10-20T08:49:24;11.48;;;8.02;;
35602;SDS011;21725;50.836;4.368;2022-10-20T08:51:53;19.20;;;9.52;;
35602;SDS011;21725;50.836;4.368;2022-10-20T08:54:19;21.58;;;10.13;;
35602;SDS011;21725;50.836;4.368;2022-10-20T08:56:47;17.23;;;10.48;;
35602;SDS011;21725;50.836;4.368;2022-10-20T08:59:20;16.75;;;10.25;;
35602;SDS011;21725;50.836;4.368;2022-10-20T09:01:55;18.55;;;10.40;;
35602;SDS011;21725;50.836;4.368;2022-10-20T09:04:48;19.65;;;10.45;;
35602;SDS011;21725;50.836;4.368;2022-10-20T09:07:36;25.15;;;12.15;;
35602;SDS011;21725;50.836;4.368;2022-10-20T09:10:34;16.13;;;9.95;;
35602;SDS011;21725;50.836;4.368;2022-10-20T09:13:13;21.70;;;10.30;;
35602;SDS011;21725;50.836;4.368;2022-10-20T09:15:55;17.40;;;10.70;;
35602;SDS011;21725;50.836;4.368;2022-10-20T09:18:36;17.15;;;10.15;;
35602;SDS011;21725;50.836;4.368;2022-10-20T09:21:16;16.50;;;11.07;;
35602;SDS011;21725;50.836;4.368;2022-10-20T09:24:07;16.80;;;10.43;;
35602;SDS011;21725;50.836;4.368;2022-10-20T09:26:45;30.20;;;11.80;;
35602;SDS011;21725;50.836;4.368;2022-10-20T09:29:35;16.52;;;10.73;;
35602;SDS011;21725;50.836;4.368;2022-10-20T09:32:15;14.27;;;9.50;;
35602;SDS011;21725;50.836;4.368;2022-10-20T09:34:45;19.45;;;11.20;;
35602;SDS011;21725;50.836;4.368;2022-10-20T09:37:11;15.18;;;10.75;;
35602;SDS011;21725;50.836;4.368;2022-10-20T09:42:21;15.85;;;9.63;;
35602;SDS011;21725;50.836;4.368;2022-10-20T09:45:01;13.55;;;10.82;;
35602;SDS011;21725;50.836;4.368;2022-10-20T09:47:36;17.27;;;10.70;;
35602;SDS011;21725;50.836;4.368;2022-10-20T09:50:30;18.50;;;10.57;;
35602;SDS011;21725;50.836;4.368;2022-10-20T09:52:59;22.10;;;10.02;;
35602;SDS011;21725;50.836;4.368;2022-10-20T09:55:35;15.75;;;11.05;;
35602;SDS011;21725;50.836;4.368;2022-10-20T09:58:13;25.40;;;11.38;;
35602;SDS011;21725;50.836;4.368;2022-10-20T10:00:56;15.15;;;10.63;;
35602;SDS011;21725;50.836;4.368;2022-10-20T10:03:24;17.35;;;10.13;;
35602;SDS011;21725;50.836;4.368;2022-10-20T10:05:54;16.98;;;10.32;;
35602;SDS011;21725;50.836;4.368;2022-10-20T10:08:23;15.18;;;10.02;;
35602;SDS011;21725;50.836;4.368;2022-10-20T10:10:57;16.77;;;9.68;;
35602;SDS011;21725;50.836;4.368;2022-10-20T10:13:31;15.88;;;9.70;;
35602;SDS011;21725;50.836;4.368;2022-10-20T10:16:05;17.42;;;9.80;;
35602;SDS011;21725;50.836;4.368;2022-10-20T10:18:33;19.30;;;8.13;;
35602;SDS011;21725;50.836;4.368;2022-10-20T10:21:02;18.88;;;10.18;;
35602;SDS011;21725;50.836;4.368;2022-10-20T10:23:32;18.30;;;9.90;;
35602;SDS011;21725;50.836;4.368;2022-10-20T10:29:22;14.88;;;10.73;;
35602;SDS011;21725;50.836;4.368;2022-10-20T10:32:00;16.63;;;7.80;;
35602;SDS011;21725;50.836;4.368;2022-10-20T10:35:00;15.60;;;8.82;;
35602;SDS011;21725;50.836;4.368;2022-10-20T10:37:34;12.02;;;7.18;;
35602;SDS011;21725;50.836;4.368;2022-10-20T10:40:13;13.35;;;8.18;;
35602;SDS011;21725;50.836;4.368;2022-10-20T10:51:07;19.48;;;7.88;;
35602;SDS011;21725;50.836;4.368;2022-10-20T10:57:02;13.73;;;9.02;;
35602;SDS011;21725;50.836;4.368;2022-10-20T10:59:44;14.00;;;7.18;;
35602;SDS011;21725;50.836;4.368;2022-10-20T11:05:29;16.70;;;8.85;;
35602;SDS011;21725;50.836;4.368;2022-10-20T11:14:10;15.20;;;8.10;;
35602;SDS011;21725;50.836;4.368;2022-10-20T11:22:41;13.65;;;7.57;;
35602;SDS011;21725;50.836;4.368;2022-10-20T11:25:25;14.13;;;7.07;;
35602;SDS011;21725;50.836;4.368;2022-10-20T11:37:02;11.70;;;5.77;;
35602;SDS011;21725;50.836;4.368;2022-10-20T11:42:43;9.63;;;4.65;;
35602;SDS011;21725;50.836;4.368;2022-10-20T11:47:55;13.48;;;5.50;;
35602;SDS011;21725;50.836;4.368;2022-10-20T11:50:26;14.77;;;6.18;;
35602;SDS011;21725;50.836;4.368;2022-10-20T11:53:18;17.90;;;5.00;;
35602;SDS011;21725;50.836;4.368;2022-10-20T11:56:16;13.30;;;4.72;;
35602;SDS011;21725;50.836;4.368;2022-10-20T11:59:09;9.77;;;4.18;;
35602;SDS011;21725;50.836;4.368;2022-10-20T12:01:57;9.93;;;4.38;;
35602;SDS011;21725;50.836;4.368;2022-10-20T12:10:55;14.07;;;4.85;;
35602;SDS011;21725;50.836;4.368;2022-10-20T12:13:55;15.07;;;4.88;;
35602;SDS011;21725;50.836;4.368;2022-10-20T12:19:24;11.13;;;4.40;;
35602;SDS011;21725;50.836;4.368;2022-10-20T12:25:10;9.07;;;3.90;;
35602;SDS011;21725;50.836;4.368;2022-10-20T12:27:17;11.30;;;4.32;;
35602;SDS011;21725;50.836;4.368;2022-10-20T12:33:14;10.48;;;4.68;;
35602;SDS011;21725;50.836;4.368;2022-10-20T12:35:56;14.40;;;4.30;;
35602;SDS011;21725;50.836;4.368;2022-10-20T12:38:41;8.45;;;3.65;;
35602;SDS011;21725;50.836;4.368;2022-10-20T12:41:11;10.95;;;3.15;;
35602;SDS011;21725;50.836;4.368;2022-10-20T12:43:52;9.23;;;3.55;;
35602;SDS011;21725;50.836;4.368;2022-10-20T12:46:25;12.05;;;3.97;;
35602;SDS011;21725;50.836;4.368;2022-10-20T12:49:06;8.15;;;2.88;;
35602;SDS011;21725;50.836;4.368;2022-10-20T12:51:51;7.38;;;2.95;;
35602;SDS011;21725;50.836;4.368;2022-10-20T12:54:20;9.13;;;3.17;;
35602;SDS011;21725;50.836;4.368;2022-10-20T12:56:58;14.30;;;4.03;;
35602;SDS011;21725;50.836;4.368;2022-10-20T13:10:44;5.38;;;2.67;;
35602;SDS011;21725;50.836;4.368;2022-10-20T13:23:32;9.10;;;3.63;;
35602;SDS011;21725;50.836;4.368;2022-10-20T13:28:55;11.82;;;3.97;;
35602;SDS011;21725;50.836;4.368;2022-10-20T13:31:30;10.65;;;2.95;;
35602;SDS011;21725;50.836;4.368;2022-10-20T13:44:49;9.10;;;3.17;;
35602;SDS011;21725;50.836;4.368;2022-10-20T13:47:38;7.75;;;3.70;;
35602;SDS011;21725;50.836;4.368;2022-10-20T13:50:45;10.07;;;3.53;;
35602;SDS011;21725;50.836;4.368;2022-10-20T13:53:24;6.75;;;2.78;;
35602;SDS011;21725;50.836;4.368;2022-10-20T13:56:03;10.18;;;4.22;;
35602;SDS011;21725;50.836;4.368;2022-10-20T13:58:57;10.02;;;3.45;;
35602;SDS011;21725;50.836;4.368;2022-10-20T14:01:26;5.63;;;3.08;;
35602;SDS011;21725;50.836;4.368;2022-10-20T14:03:56;7.95;;;3.55;;
35602;SDS011;21725;50.836;4.368;2022-10-20T14:06:35;9.30;;;3.80;;
35602;SDS011;21725;50.836;4.368;2022-10-20T14:09:09;8.73;;;3.92;;
35602;SDS011;21725;50.836;4.368;2022-10-20T14:11:49;6.40;;;2.47;;
35602;SDS011;21725;50.836;4.368;2022-10-20T14:14:24;10.02;;;2.83;;
35602;SDS011;21725;50.836;4.368;2022-10-20T14:16:55;12.48;;;4.20;;
35602;SDS011;21725;50.836;4.368;2022-10-20T14:19:27;9.05;;;3.00;;
35602;SDS011;21725;50.836;4.368;2022-10-20T14:21:56;9.82;;;3.00;;
35602;SDS011;21725;50.836;4.368;2022-10-20T14:27:00;8.18;;;2.78;;
35602;SDS011;21725;50.836;4.368;2022-10-20T14:29:32;6.82;;;2.72;;
35602;SDS011;21725;50.836;4.368;2022-10-20T14:32:04;9.13;;;2.95;;
35602;SDS011;21725;50.836;4.368;2022-10-20T14:34:51;11.20;;;2.92;;
35602;SDS011;21725;50.836;4.368;2022-10-20T14:37:39;7.38;;;3.22;;
35602;SDS011;21725;50.836;4.368;2022-10-20T14:40:22;8.95;;;3.08;;
35602;SDS011;21725;50.836;4.368;2022-10-20T14:48:35;6.97;;;2.70;;
35602;SDS011;21725;50.836;4.368;2022-10-20T14:56:58;14.23;;;3.25;;
35602;SDS011;21725;50.836;4.368;2022-10-20T14:59:54;8.07;;;2.72;;
35602;SDS011;21725;50.836;4.368;2022-10-20T15:02:28;8.35;;;2.85;;
35602;SDS011;21725;50.836;4.368;2022-10-20T15:08:10;7.40;;;2.80;;
35602;SDS011;21725;50.836;4.368;2022-10-20T15:10:45;9.65;;;3.35;;
35602;SDS011;21725;50.836;4.368;2022-10-20T15:13:21;7.45;;;3.00;;
35602;SDS011;21725;50.836;4.368;2022-10-20T15:18:17;12.13;;;3.45;;
35602;SDS011;21725;50.836;4.368;2022-10-20T15:20:47;9.73;;;2.70;;
35602;SDS011;21725;50.836;4.368;2022-10-20T15:23:22;10.30;;;2.83;;
35602;SDS011;21725;50.836;4.368;2022-10-20T15:26:08;9.32;;;3.33;;
35602;SDS011;21725;50.836;4.368;2022-10-20T15:31:28;12.15;;;4.10;;
35602;SDS011;21725;50.836;4.368;2022-10-20T15:34:07;10.15;;;4.30;;
35602;SDS011;21725;50.836;4.368;2022-10-20T15:36:43;6.00;;;2.65;;
35602;SDS011;21725;50.836;4.368;2022-10-20T15:39:13;11.43;;;3.95;;
35602;SDS011;21725;50.836;4.368;2022-10-20T15:41:39;8.57;;;3.15;;
35602;SDS011;21725;50.836;4.368;2022-10-20T15:46:41;14.35;;;4.75;;
35602;SDS011;21725;50.836;4.368;2022-10-20T15:49:11;8.48;;;3.17;;
35602;SDS011;21725;50.836;4.368;2022-10-20T15:51:42;7.68;;;3.13;;
35602;SDS011;21725;50.836;4.368;2022-10-20T15:54:11;12.13;;;3.47;;
35602;SDS011;21725;50.836;4.368;2022-10-20T15:56:44;8.30;;;2.72;;
35602;SDS011;21725;50.836;4.368;2022-10-20T15:59:12;11.27;;;3.78;;
35602;SDS011;21725;50.836;4.368;2022-10-20T16:01:38;7.95;;;3.08;;
35602;SDS011;21725;50.836;4.368;2022-10-20T16:04:14;9.35;;;2.85;;
35602;SDS011;21725;50.836;4.368;2022-10-20T16:06:55;10.48;;;2.70;;
35602;SDS011;21725;50.836;4.368;2022-10-20T16:09:22;8.82;;;4.18;;
35602;SDS011;21725;50.836;4.368;2022-10-20T16:11:50;10.73;;;4.65;;
35602;SDS011;21725;50.836;4.368;2022-10-20T16:14:21;8.55;;;4.25;;
35602;SDS011;21725;50.836;4.368;2022-10-20T16:16:49;8.53;;;3.10;;
35602;SDS011;21725;50.836;4.368;2022-10-20T16:19:15;5.25;;;2.80;;
35602;SDS011;21725;50.836;4.368;2022-10-20T16:21:41;6.85;;;3.20;;
35602;SDS011;21725;50.836;4.368;2022-10-20T16:24:06;9.43;;;4.20;;
35602;SDS011;21725;50.836;4.368;2022-10-20T16:26:37;7.32;;;3.85;;
35602;SDS011;21725;50.836;4.368;2022-10-20T16:29:06;8.80;;;3.80;;
35602;SDS011;21725;50.836;4.368;2022-10-20T16:31:35;15.65;;;5.65;;
35602;SDS011;21725;50.836;4.368;2022-10-20T16:34:11;7.30;;;3.83;;
35602;SDS011;21725;50.836;4.368;2022-10-20T16:36:37;13.40;;;5.40;;
35602;SDS011;21725;50.836;4.368;2022-10-20T16:39:08;6.65;;;3.70;;
35602;SDS011;21725;50.836;4.368;2022-10-20T16:41:43;7.55;;;3.72;;
35602;SDS011;21725;50.836;4.368;2022-10-20T16:44:10;14.00;;;3.40;;
35602;SDS011;21725;50.836;4.368;2022-10-20T16:46:36;11.57;;;3.72;;
35602;SDS011;21725;50.836;4.368;2022-10-20T16:49:02;6.25;;;3.17;;
35602;SDS011;21725;50.836;4.368;2022-10-20T16:51:29;8.35;;;4.13;;
35602;SDS011;21725;50.836;4.368;2022-10-20T16:53:55;10.20;;;5.10;;
35602;SDS011;21725;50.836;4.368;2022-10-20T16:56:24;7.53;;;3.80;;
35602;SDS011;21725;50.836;4.368;2022-10-20T16:58:50;9.73;;;3.60;;
35602;SDS011;21725;50.836;4.368;2022-10-20T17:01:26;9.60;;;3.63;;
35602;SDS011;21725;50.836;4.368;2022-10-20T17:03:52;8.75;;;4.55;;
35602;SDS011;21725;50.836;4.368;2022-10-20T17:06:30;8.88;;;3.53;;
35602;SDS011;21725;50.836;4.368;2022-10-20T17:08:57;9.07;;;3.78;;
35602;SDS011;21725;50.836;4.368;2022-10-20T17:11:27;17.63;;;4.68;;
35602;SDS011;21725;50.836;4.368;2022-10-20T17:13:56;14.52;;;5.85;;
35602;SDS011;21725;50.836;4.368;2022-10-20T17:16:24;11.77;;;4.78;;
35602;SDS011;21725;50.836;4.368;2022-10-20T17:18:53;10.60;;;4.43;;
35602;SDS011;21725;50.836;4.368;2022-10-20T17:21:24;11.98;;;5.20;;
35602;SDS011;21725;50.836;4.368;2022-10-20T17:23:50;20.67;;;7.75;;
35602;SDS011;21725;50.836;4.368;2022-10-20T17:26:20;9.67;;;3.83;;
35602;SDS011;21725;50.836;4.368;2022-10-20T17:28:47;11.23;;;4.33;;
35602;SDS011;21725;50.836;4.368;2022-10-20T17:31:17;14.80;;;4.93;;
35602;SDS011;21725;50.836;4.368;2022-10-20T17:33:46;19.80;;;5.22;;
35602;SDS011;21725;50.836;4.368;2022-10-20T17:36:12;11.75;;;4.60;;
35602;SDS011;21725;50.836;4.368;2022-10-20T17:38:39;15.35;;;5.22;;
35602;SDS011;21725;50.836;4.368;2022-10-20T17:41:10;8.10;;;4.50;;